createdAt,value
2022-08-07T00:00:35.566Z,66.78
2022-08-07T00:03:39.060Z,67.07
2022-08-07T00:06:51.828Z,67.34
2022-08-07T00:10:19.014Z,67.62
2022-08-07T00:13:25.580Z,67.70
2022-08-07T00:16:31.834Z,67.78
2022-08-07T00:20:02.586Z,68.05
2022-08-07T00:22:59.270Z,68.34
2022-08-07T00:26:18.791Z,68.41
2022-08-07T00:29:38.640Z,68.37
2022-08-07T00:32:41.445Z,68.42
2022-08-07T00:35:49.723Z,68.58
2022-08-07T00:38:51.907Z,69.01
2022-08-07T00:42:01.741Z,69.49
2022-08-07T00:45:16.066Z,69.87
2022-08-07T00:48:18.718Z,70.38
2022-08-07T00:51:58.342Z,70.46
2022-08-07T00:54:53.742Z,70.64
2022-08-07T00:57:56.373Z,70.57
2022-08-07T01:00:58.716Z,70.87
2022-08-07T01:04:00.862Z,71.01
2022-08-07T01:07:04.601Z,71.08
2022-08-07T01:10:11.235Z,71.35
2022-08-07T01:13:16.442Z,71.34
2022-08-07T01:16:30.300Z,71.16
2022-08-07T01:19:38.393Z,71.24
2022-08-07T01:22:46.633Z,71.69
2022-08-07T01:25:55.266Z,71.66
2022-08-07T01:28:58.284Z,71.70
2022-08-07T01:32:00.380Z,71.87
2022-08-07T01:35:17.175Z,72.22
2022-08-07T01:38:24.846Z,72.16
2022-08-07T01:41:27.789Z,72.20
2022-08-07T01:44:29.786Z,72.27
2022-08-07T01:48:18.867Z,72.33
2022-08-07T01:50:57.483Z,72.75
2022-08-07T01:54:12.076Z,72.68
2022-08-07T01:57:27.723Z,72.54
2022-08-07T02:00:31.224Z,72.62
2022-08-07T02:03:48.552Z,72.68
2022-08-07T02:06:52.253Z,72.97
2022-08-07T02:09:58.300Z,72.95
2022-08-07T02:13:03.210Z,73.41
2022-08-07T02:16:07.554Z,73.29
2022-08-07T02:20:07.770Z,73.17
2022-08-07T02:22:40.923Z,73.45
2022-08-07T02:26:31.380Z,73.32
2022-08-07T02:29:13.771Z,73.35
2022-08-07T02:32:18.442Z,73.61
2022-08-07T02:36:29.286Z,73.66
2022-08-07T02:38:50.810Z,73.83
2022-08-07T02:42:00.923Z,73.57
2022-08-07T02:45:55.908Z,73.95
2022-08-07T02:48:26.388Z,73.89
2022-08-07T02:51:42.424Z,74.01
2022-08-07T02:54:52.232Z,74.12
2022-08-07T02:58:09.743Z,74.58
2022-08-07T03:01:36.262Z,73.80
2022-08-07T03:04:39.623Z,74.45
2022-08-07T03:08:05.073Z,74.53
2022-08-07T03:11:04.100Z,74.28
2022-08-07T03:14:07.942Z,74.09
2022-08-07T03:17:12.197Z,74.25
2022-08-07T03:20:16.745Z,74.61
2022-08-07T03:23:20.148Z,74.80
2022-08-07T03:26:36.229Z,74.42
2022-08-07T03:29:53.221Z,74.47
2022-08-07T03:32:58.823Z,74.83
2022-08-07T03:36:00.928Z,74.64
2022-08-07T03:39:06.191Z,74.62
2022-08-07T03:42:11.439Z,75.01
2022-08-07T03:45:29.926Z,74.84
2022-08-07T03:48:34.863Z,74.87
2022-08-07T03:52:01.220Z,75.03
2022-08-07T03:55:06.923Z,74.98
2022-08-07T03:59:06.776Z,74.84
2022-08-07T04:01:32.536Z,74.98
2022-08-07T04:04:41.869Z,74.58
2022-08-07T04:07:47.770Z,74.99
2022-08-07T04:10:54.115Z,75.10
2022-08-07T04:14:37.763Z,75.01
2022-08-07T04:18:56.632Z,75.26
2022-08-07T04:20:57.437Z,75.50
2022-08-07T04:24:03.745Z,75.27
2022-08-07T04:27:15.177Z,75.17
2022-08-07T04:30:39.375Z,75.15
2022-08-07T04:33:45.803Z,75.35
2022-08-07T04:36:49.606Z,74.82
2022-08-07T04:39:51.342Z,75.00
2022-08-07T04:42:53.549Z,74.99
2022-08-07T04:46:01.686Z,75.05
2022-08-07T04:49:17.900Z,74.92
2022-08-07T04:52:28.480Z,75.09
2022-08-07T04:58:12.052Z,75.51
2022-08-07T05:02:25.507Z,75.15
2022-08-07T05:05:53.476Z,74.71
2022-08-07T05:09:00.814Z,74.30
2022-08-07T05:12:06.455Z,74.04
2022-08-07T05:15:23.049Z,73.64
2022-08-07T05:18:27.609Z,73.64
2022-08-07T05:22:00.691Z,73.05
2022-08-07T05:24:57.330Z,72.65
2022-08-07T05:28:21.196Z,72.67
2022-08-07T05:31:34.770Z,72.55
2022-08-07T05:34:37.835Z,72.53
2022-08-07T05:37:42.260Z,72.90
2022-08-07T05:40:50.658Z,73.40
2022-08-07T05:44:11.845Z,73.32
2022-08-07T05:47:20.908Z,73.53
2022-08-07T05:50:43.038Z,73.72
2022-08-07T05:54:08.551Z,73.25
2022-08-07T05:57:08.319Z,73.32
2022-08-07T06:00:16.580Z,73.21
2022-08-07T06:03:20.528Z,73.40
2022-08-07T06:06:24.521Z,73.42
2022-08-07T06:10:03.862Z,72.72
2022-08-07T06:12:55.045Z,72.28
2022-08-07T06:15:58.166Z,72.19
2022-08-07T06:19:00.790Z,72.40
2022-08-07T06:22:16.135Z,72.05
2022-08-07T06:25:25.409Z,72.18
2022-08-07T06:28:32.274Z,71.95
2022-08-07T06:31:46.516Z,71.88
2022-08-07T06:34:51.350Z,71.44
2022-08-07T06:37:53.117Z,71.20
2022-08-07T06:40:57.434Z,70.98
2022-08-07T06:44:01.591Z,71.24
2022-08-07T06:47:10.523Z,71.24
2022-08-07T06:50:18.943Z,71.18
2022-08-07T06:55:27.191Z,70.76
2022-08-07T06:56:48.426Z,70.47
2022-08-07T07:00:11.758Z,70.06
2022-08-07T07:03:26.351Z,70.00
2022-08-07T07:07:00.320Z,69.96
2022-08-07T07:10:02.805Z,68.74
2022-08-07T07:13:08.206Z,68.85
2022-08-07T07:16:19.487Z,68.59
2022-08-07T07:19:55.895Z,68.63
2022-08-07T07:24:08.485Z,68.48
2022-08-07T07:26:34.176Z,67.88
2022-08-07T07:29:56.280Z,66.87
2022-08-07T07:32:59.651Z,66.03
2022-08-07T07:36:12.632Z,66.01
2022-08-07T07:39:19.894Z,64.52
2022-08-07T07:42:30.046Z,64.55
2022-08-07T07:46:36.533Z,63.70
2022-08-07T07:49:08.800Z,63.18
2022-08-07T07:52:21.842Z,62.84
2022-08-07T07:55:26.343Z,63.44
2022-08-07T07:58:41.099Z,63.30
2022-08-07T08:02:03.775Z,63.05
2022-08-07T08:05:14.347Z,62.53
2022-08-07T08:08:35.185Z,62.24
2022-08-07T08:11:59.898Z,62.15
2022-08-07T08:15:00.923Z,61.75
2022-08-07T08:18:17.985Z,61.01
2022-08-07T08:21:55.474Z,61.20
2022-08-07T08:25:26.944Z,61.44
2022-08-07T08:28:45.737Z,61.34
2022-08-07T08:31:59.280Z,61.41
2022-08-07T08:35:17.174Z,59.17
2022-08-07T08:38:25.858Z,59.68
2022-08-07T08:41:56.635Z,58.89
2022-08-07T08:45:05.363Z,57.35
2022-08-07T08:48:10.687Z,56.13
2022-08-07T08:51:29.584Z,54.21
2022-08-07T08:54:52.031Z,55.11
2022-08-07T08:58:01.297Z,54.83
2022-08-07T09:01:15.313Z,53.22
2022-08-07T09:04:26.000Z,52.80
2022-08-07T09:07:46.195Z,52.81
2022-08-07T09:10:53.256Z,53.89
2022-08-07T09:14:02.458Z,53.01
2022-08-07T09:17:11.657Z,52.16
2022-08-07T09:20:35.553Z,51.87
2022-08-07T09:24:30.793Z,51.45
2022-08-07T09:27:16.744Z,52.04
2022-08-07T09:30:20.713Z,52.10
2022-08-07T09:33:52.603Z,51.83
2022-08-07T09:37:02.491Z,51.36
2022-08-07T09:40:17.917Z,51.30
2022-08-07T09:44:03.666Z,50.88
2022-08-07T09:47:55.665Z,51.33
2022-08-07T09:50:33.047Z,51.50
2022-08-07T09:53:40.877Z,51.54
2022-08-07T09:57:13.037Z,51.75
2022-08-07T10:00:20.395Z,51.19
2022-08-07T10:04:03.283Z,51.09
2022-08-07T10:07:02.301Z,51.50
2022-08-07T10:10:21.689Z,50.95
2022-08-07T10:14:00.824Z,50.54
2022-08-07T10:17:16.506Z,51.22
2022-08-07T10:20:30.251Z,50.97
2022-08-07T10:24:06.811Z,50.62
2022-08-07T10:27:11.535Z,49.79
2022-08-07T10:30:15.684Z,49.92
2022-08-07T10:34:06.749Z,50.38
2022-08-07T10:37:12.329Z,49.69
2022-08-07T10:40:18.037Z,51.16
2022-08-07T10:43:34.105Z,50.34
2022-08-07T10:46:40.679Z,49.99
2022-08-07T10:49:50.947Z,49.65
2022-08-07T10:53:07.950Z,49.64
2022-08-07T10:56:20.709Z,50.01
2022-08-07T10:59:36.998Z,50.22
2022-08-07T11:02:42.166Z,50.57
2022-08-07T11:05:57.918Z,49.64
2022-08-07T11:09:02.876Z,49.81
2022-08-07T11:12:06.886Z,50.66
2022-08-07T11:15:17.346Z,50.15
2022-08-07T11:18:22.091Z,49.39
2022-08-07T11:21:41.044Z,49.01
2022-08-07T11:24:47.861Z,47.78
2022-08-07T11:28:03.013Z,48.68
2022-08-07T11:31:08.530Z,47.68
2022-08-07T11:34:17.545Z,47.32
2022-08-07T11:37:38.328Z,47.60
2022-08-07T11:40:49.941Z,48.32
2022-08-07T11:44:12.253Z,46.81
2022-08-07T11:47:23.030Z,45.51
2022-08-07T11:50:35.240Z,46.39
2022-08-07T11:54:01.087Z,45.71
2022-08-07T11:57:57.902Z,44.99
2022-08-07T12:01:02.389Z,45.07
2022-08-07T12:04:14.794Z,45.62
2022-08-07T12:07:26.968Z,46.06
2022-08-07T12:10:35.555Z,46.48
2022-08-07T12:13:47.718Z,46.59
2022-08-07T12:16:53.881Z,46.21
2022-08-07T12:20:04.833Z,46.23
2022-08-07T12:23:14.675Z,46.22
2022-08-07T12:26:29.884Z,47.20
2022-08-07T12:29:38.447Z,46.04
2022-08-07T12:32:43.802Z,46.04
2022-08-07T12:35:48.206Z,44.62
2022-08-07T12:39:01.794Z,44.09
2022-08-07T12:42:07.055Z,43.69
2022-08-07T12:45:12.456Z,44.03
2022-08-07T12:48:27.679Z,43.71
2022-08-07T12:51:51.273Z,43.32
2022-08-07T12:55:05.639Z,42.96
2022-08-07T12:58:14.570Z,42.30
2022-08-07T13:01:20.164Z,41.72
2022-08-07T13:04:34.242Z,41.85
2022-08-07T13:08:13.920Z,42.21
2022-08-07T13:11:23.524Z,42.23
2022-08-07T13:14:31.710Z,42.66
2022-08-07T13:17:40.782Z,40.66
2022-08-07T13:20:51.859Z,41.28
2022-08-07T13:24:01.085Z,40.81
2022-08-07T13:27:10.639Z,42.06
2022-08-07T13:30:19.456Z,41.32
2022-08-07T13:34:32.034Z,41.62
2022-08-07T13:37:04.241Z,41.09
2022-08-07T13:40:35.588Z,41.43
2022-08-07T13:43:42.600Z,42.13
2022-08-07T13:46:49.373Z,40.27
2022-08-07T13:50:35.671Z,40.67
2022-08-07T13:53:19.451Z,41.93
2022-08-07T13:56:36.327Z,41.91
2022-08-07T13:59:45.467Z,42.12
2022-08-07T14:02:54.110Z,42.42
2022-08-07T14:06:01.044Z,42.87
2022-08-07T14:09:04.795Z,43.15
2022-08-07T14:12:10.305Z,43.78
2022-08-07T14:15:18.838Z,43.18
2022-08-07T14:18:30.625Z,42.78
2022-08-07T14:22:01.367Z,42.09
2022-08-07T14:25:01.999Z,42.54
2022-08-07T14:28:12.916Z,41.94
2022-08-07T14:31:16.542Z,41.33
2022-08-07T14:34:22.746Z,39.81
2022-08-07T14:37:36.369Z,40.38
2022-08-07T14:40:48.619Z,40.89
2022-08-07T14:43:58.116Z,40.00
2022-08-07T14:47:14.767Z,39.79
2022-08-07T14:50:20.633Z,39.33
2022-08-07T14:56:47.882Z,40.22
2022-08-07T15:00:03.392Z,41.69
2022-08-07T15:03:18.888Z,41.36
2022-08-07T15:06:33.941Z,40.85
2022-08-07T15:09:57.761Z,40.47
2022-08-07T15:13:12.356Z,40.27
2022-08-07T15:16:33.528Z,40.55
2022-08-07T15:20:31.145Z,40.46
2022-08-07T15:26:28.631Z,40.45
2022-08-07T15:30:06.371Z,39.91
2022-08-07T15:33:03.990Z,41.30
2022-08-07T15:36:09.467Z,40.71
2022-08-07T15:39:13.496Z,40.60
2022-08-07T15:45:55.673Z,40.07
2022-08-07T15:49:16.409Z,40.12
2022-08-07T15:52:21.711Z,40.40
2022-08-07T15:55:58.476Z,40.76
2022-08-07T15:59:01.833Z,40.66
2022-08-07T16:02:05.101Z,40.20
2022-08-07T16:05:15.202Z,40.76
2022-08-07T16:08:31.646Z,40.23
2022-08-07T16:11:52.603Z,40.09
2022-08-07T16:15:06.863Z,40.15
2022-08-07T16:18:13.574Z,40.21
2022-08-07T16:22:03.243Z,40.39
2022-08-07T16:25:04.771Z,40.11
2022-08-07T16:30:07.195Z,40.57
2022-08-07T16:31:57.671Z,40.71
2022-08-07T16:35:32.556Z,40.34
2022-08-07T16:39:00.614Z,40.72
2022-08-07T16:42:23.913Z,40.71
2022-08-07T16:46:21.266Z,40.22
2022-08-07T16:50:20.255Z,40.41
2022-08-07T16:52:55.560Z,40.62
2022-08-07T16:56:05.697Z,40.92
2022-08-07T16:59:11.190Z,40.43
2022-08-07T17:02:52.445Z,40.57
2022-08-07T17:06:19.379Z,40.92
2022-08-07T17:10:07.195Z,41.12
2022-08-07T17:12:53.885Z,41.35
2022-08-07T17:16:02.014Z,41.23
2022-08-07T17:19:16.247Z,41.81
2022-08-07T17:22:30.107Z,42.13
2022-08-07T17:25:51.864Z,42.36
2022-08-07T17:30:12.646Z,42.37
2022-08-07T17:32:52.151Z,42.41
2022-08-07T17:36:02.765Z,42.60
2022-08-07T17:39:10.537Z,43.06
2022-08-07T17:42:21.472Z,43.07
2022-08-07T17:45:26.724Z,43.29
2022-08-07T17:48:32.860Z,43.37
2022-08-07T17:51:49.354Z,43.65
2022-08-07T17:55:05.048Z,43.80
2022-08-07T17:58:09.199Z,44.16
2022-08-07T18:01:20.547Z,44.10
2022-08-07T18:04:37.603Z,43.93
2022-08-07T18:07:46.114Z,44.17
2022-08-07T18:12:07.606Z,44.23
2022-08-07T18:14:32.742Z,44.11
2022-08-07T18:18:46.422Z,44.58
2022-08-07T18:21:37.337Z,44.48
2022-08-07T18:24:36.988Z,44.54
2022-08-07T18:31:08.672Z,44.14
2022-08-07T18:34:39.321Z,44.06
2022-08-07T18:38:58.570Z,43.94
2022-08-07T18:41:44.631Z,44.28
2022-08-07T18:45:44.065Z,44.32
2022-08-07T18:50:05.625Z,44.57
2022-08-07T18:52:38.317Z,44.62
2022-08-07T18:55:42.919Z,44.88
2022-08-07T18:58:51.158Z,45.11
2022-08-07T19:02:18.591Z,45.05
2022-08-07T19:05:22.764Z,45.16
2022-08-07T19:08:41.487Z,45.16
2022-08-07T19:12:11.067Z,45.48
2022-08-07T19:16:02.890Z,45.44
2022-08-07T19:18:57.305Z,45.74
2022-08-07T19:22:05.163Z,47.34
2022-08-07T19:25:13.153Z,48.06
2022-08-07T19:30:54.223Z,48.89
2022-08-07T19:32:25.905Z,49.25
2022-08-07T19:35:26.767Z,49.62
2022-08-07T19:38:30.878Z,49.99
2022-08-07T19:41:44.901Z,50.16
2022-08-07T19:45:09.424Z,50.39
2022-08-07T19:48:18.666Z,50.52
2022-08-07T19:51:52.863Z,50.07
2022-08-07T19:54:56.315Z,49.31
2022-08-07T19:58:12.461Z,48.74
2022-08-07T20:01:17.768Z,47.98
2022-08-07T20:04:31.417Z,47.79
2022-08-07T20:07:46.038Z,47.81
2022-08-07T20:10:55.916Z,48.10
2022-08-07T20:13:59.913Z,48.05
2022-08-07T20:17:05.940Z,48.20
2022-08-07T20:20:10.383Z,48.27
2022-08-07T20:23:40.264Z,48.36
2022-08-07T20:26:44.706Z,47.80
2022-08-07T20:29:59.358Z,47.54
2022-08-07T20:33:02.952Z,47.47
2022-08-07T20:36:08.062Z,47.39
2022-08-07T20:40:01.261Z,47.69
2022-08-07T20:42:38.437Z,47.96
2022-08-07T20:46:27.062Z,48.07
2022-08-07T20:49:59.168Z,48.29
2022-08-07T20:52:51.100Z,48.23
2022-08-07T20:55:57.277Z,48.20
2022-08-07T20:59:02.749Z,48.39
2022-08-07T21:02:32.067Z,48.40
2022-08-07T21:05:51.501Z,48.78
2022-08-07T21:09:03.159Z,48.98
2022-08-07T21:12:15.250Z,49.62
2022-08-07T21:15:58.027Z,50.06
2022-08-07T21:18:53.284Z,50.66
2022-08-07T21:21:57.416Z,51.29
2022-08-07T21:25:12.718Z,51.26
2022-08-07T21:28:47.490Z,50.71
2022-08-07T21:32:42.488Z,50.61
2022-08-07T21:35:11.465Z,51.29
2022-08-07T21:38:19.105Z,51.48
2022-08-07T21:41:38.164Z,52.24
2022-08-07T21:44:57.005Z,52.89
2022-08-07T21:48:02.445Z,52.54
2022-08-07T21:51:19.738Z,52.52
2022-08-07T21:54:32.549Z,52.32
2022-08-07T21:57:44.776Z,52.43
2022-08-07T22:00:57.115Z,52.65
2022-08-07T22:04:02.658Z,52.38
2022-08-07T22:07:07.608Z,52.26
2022-08-07T22:10:10.604Z,52.22
2022-08-07T22:13:15.997Z,52.92
2022-08-07T22:16:42.255Z,53.67
2022-08-07T22:19:54.597Z,54.26
2022-08-07T22:23:01.902Z,54.71
2022-08-07T22:26:06.200Z,54.96
2022-08-07T22:29:15.333Z,55.46
2022-08-07T22:32:20.849Z,55.52
2022-08-07T22:35:23.468Z,55.46
2022-08-07T22:38:48.196Z,55.70
2022-08-07T22:42:03.448Z,55.94
2022-08-07T22:46:04.131Z,56.27
2022-08-07T22:49:02.115Z,56.25
2022-08-07T22:52:36.760Z,56.39
2022-08-07T22:55:46.897Z,56.50
2022-08-07T22:59:07.294Z,56.70
2022-08-07T23:02:20.772Z,56.70
2022-08-07T23:06:09.038Z,55.85
2022-08-07T23:10:03.535Z,55.52
2022-08-07T23:12:52.955Z,55.45
2022-08-07T23:16:06.063Z,55.60
2022-08-07T23:19:58.042Z,55.77
2022-08-07T23:24:06.184Z,56.64
2022-08-07T23:26:58.586Z,56.35
2022-08-07T23:30:37.278Z,56.16
2022-08-07T23:34:35.327Z,56.26
2022-08-07T23:37:18.991Z,56.22
2022-08-07T23:40:28.990Z,56.16
2022-08-07T23:43:43.853Z,56.20
2022-08-07T23:46:59.791Z,56.31
2022-08-07T23:50:16.470Z,56.42
2022-08-07T23:53:49.560Z,56.39
2022-08-07T23:56:55.055Z,56.70
